createdAt,value
2018-03-27T00:00:50.052Z,1007.78
2018-03-27T00:01:50.040Z,1007.76
2018-03-27T00:02:50.214Z,1007.77
2018-03-27T00:03:49.992Z,1007.77
2018-03-27T00:04:49.973Z,1007.8
2018-03-27T00:05:49.954Z,1007.77
2018-03-27T00:06:49.935Z,1007.72
2018-03-27T00:07:49.915Z,1007.72
2018-03-27T00:08:49.898Z,1007.74
2018-03-27T00:09:49.880Z,1007.74
2018-03-27T00:10:49.860Z,1007.71
2018-03-27T00:11:49.838Z,1007.69
2018-03-27T00:12:49.820Z,1007.68
2018-03-27T00:13:49.811Z,1007.68
2018-03-27T00:14:49.781Z,1007.65
2018-03-27T00:15:49.762Z,1007.66
2018-03-27T00:16:49.744Z,1007.67
2018-03-27T00:17:49.726Z,1007.64
2018-03-27T00:18:49.708Z,1007.65
2018-03-27T00:19:49.687Z,1007.63
2018-03-27T00:20:49.667Z,1007.61
2018-03-27T00:21:49.648Z,1007.61
2018-03-27T00:22:49.630Z,1007.61
2018-03-27T00:23:49.611Z,1007.64
2018-03-27T00:24:49.595Z,1007.63
2018-03-27T00:25:49.571Z,1007.7
2018-03-27T00:26:49.552Z,1007.67
2018-03-27T00:27:49.534Z,1007.66
2018-03-27T00:28:49.520Z,1007.68
2018-03-27T00:29:49.497Z,1007.63
2018-03-27T00:30:49.476Z,1007.68
2018-03-27T00:31:49.458Z,1007.64
2018-03-27T00:32:49.438Z,1007.66
2018-03-27T00:33:49.417Z,1007.65
2018-03-27T00:34:49.399Z,1007.62
2018-03-27T00:35:49.378Z,1007.6
2018-03-27T00:36:49.361Z,1007.59
2018-03-27T00:37:49.347Z,1007.56
2018-03-27T00:38:49.321Z,1007.57
2018-03-27T00:39:49.313Z,1007.52
2018-03-27T00:40:49.286Z,1007.5
2018-03-27T00:41:49.263Z,1007.51
2018-03-27T00:42:49.254Z,1007.5
2018-03-27T00:43:49.225Z,1007.48
2018-03-27T00:44:49.207Z,1007.43
2018-03-27T00:45:49.188Z,1007.44
2018-03-27T00:46:49.172Z,1007.47
2018-03-27T00:47:49.149Z,1007.44
2018-03-27T00:48:49.130Z,1007.46
2018-03-27T00:49:49.109Z,1007.44
2018-03-27T00:50:49.090Z,1007.43
2018-03-27T00:51:49.081Z,1007.45
2018-03-27T00:52:49.053Z,1007.42
2018-03-27T00:53:49.032Z,1007.46
2018-03-27T00:54:49.056Z,1007.46
2018-03-27T00:55:48.995Z,1007.43
2018-03-27T00:56:48.978Z,1007.44
2018-03-27T00:57:48.954Z,1007.38
2018-03-27T00:58:48.936Z,1007.38
2018-03-27T00:59:48.916Z,1007.37
2018-03-27T01:00:48.902Z,1007.35
2018-03-27T01:01:48.926Z,1007.31
2018-03-27T01:02:48.857Z,1007.31
2018-03-27T01:03:48.838Z,1007.31
2018-03-27T01:04:48.818Z,1007.3
2018-03-27T01:05:48.799Z,1007.27
2018-03-27T01:06:48.804Z,1007.31
2018-03-27T01:07:48.762Z,1007.35
2018-03-27T01:08:48.740Z,1007.38
2018-03-27T01:09:48.730Z,1007.37
2018-03-27T01:10:48.702Z,1007.38
2018-03-27T01:11:48.687Z,1007.41
2018-03-27T01:12:48.662Z,1007.39
2018-03-27T01:13:48.641Z,1007.37
2018-03-27T01:14:48.651Z,1007.35
2018-03-27T01:15:48.605Z,1007.34
2018-03-27T01:16:48.585Z,1007.36
2018-03-27T01:17:48.565Z,1007.32
2018-03-27T01:18:48.546Z,1007.33
2018-03-27T01:19:48.527Z,1007.3
2018-03-27T01:20:48.508Z,1007.32
2018-03-27T01:21:48.487Z,1007.32
2018-03-27T01:22:48.472Z,1007.33
2018-03-27T01:23:48.448Z,1007.32
2018-03-27T01:24:48.428Z,1007.33
2018-03-27T01:25:48.409Z,1007.3
2018-03-27T01:26:48.391Z,1007.31
2018-03-27T01:27:48.371Z,1007.31
2018-03-27T01:28:48.350Z,1007.3
2018-03-27T01:29:48.334Z,1007.23
2018-03-27T01:30:48.313Z,1007.26
2018-03-27T01:31:48.293Z,1007.24
2018-03-27T01:32:48.274Z,1007.27
2018-03-27T01:33:48.254Z,1007.28
2018-03-27T01:34:48.235Z,1007.23
2018-03-27T01:35:48.217Z,1007.18
2018-03-27T01:36:48.196Z,1007.17
2018-03-27T01:37:48.175Z,1007.2
2018-03-27T01:38:48.161Z,1007.21
2018-03-27T01:39:48.145Z,1007.15
2018-03-27T01:40:48.120Z,1007.18
2018-03-27T01:41:48.101Z,1007.13
2018-03-27T01:42:48.082Z,1007.18
2018-03-27T01:43:48.061Z,1007.15
2018-03-27T01:44:48.044Z,1007.15
2018-03-27T01:45:48.021Z,1007.14
2018-03-27T01:46:48.003Z,1007.1
2018-03-27T01:47:47.983Z,1007.14
2018-03-27T01:48:47.964Z,1007.14
2018-03-27T01:49:47.943Z,1007.15
2018-03-27T01:50:47.923Z,1007.15
2018-03-27T01:51:47.905Z,1007.13
2018-03-27T01:52:47.886Z,1007.11
2018-03-27T01:53:47.866Z,1007.06
2018-03-27T01:54:47.846Z,1007.03
2018-03-27T01:55:47.828Z,1007.01
2018-03-27T01:56:47.809Z,1007
2018-03-27T01:57:47.838Z,1007.01
2018-03-27T01:58:47.771Z,1007
2018-03-27T01:59:47.752Z,1006.98
2018-03-27T02:00:47.730Z,1006.96
2018-03-27T02:01:47.720Z,1006.98
2018-03-27T02:02:47.897Z,1006.98
2018-03-27T02:03:47.674Z,1006.95
2018-03-27T02:04:47.664Z,1006.99
2018-03-27T02:05:47.640Z,1006.96
2018-03-27T02:06:47.627Z,1006.97
2018-03-27T02:07:47.596Z,1006.97
2018-03-27T02:08:47.578Z,1006.98
2018-03-27T02:09:47.556Z,1006.99
2018-03-27T02:10:47.549Z,1006.98
2018-03-27T02:11:47.520Z,1006.97
2018-03-27T02:12:47.496Z,1006.95
2018-03-27T02:13:47.481Z,1006.91
2018-03-27T02:14:47.461Z,1006.89
2018-03-27T02:15:47.441Z,1006.9
2018-03-27T02:16:47.420Z,1006.9
2018-03-27T02:17:47.399Z,1006.92
2018-03-27T02:18:47.380Z,1006.89
2018-03-27T02:19:47.360Z,1006.88
2018-03-27T02:20:47.340Z,1006.88
2018-03-27T02:21:47.323Z,1006.89
2018-03-27T02:22:47.302Z,1006.9
2018-03-27T02:23:47.282Z,1006.88
2018-03-27T02:24:47.261Z,1006.85
2018-03-27T02:25:47.243Z,1006.86
2018-03-27T02:26:47.223Z,1006.88
2018-03-27T02:27:47.204Z,1006.88
2018-03-27T02:28:47.185Z,1006.88
2018-03-27T02:29:47.168Z,1006.87
2018-03-27T02:30:47.150Z,1006.92
2018-03-27T02:31:47.129Z,1006.89
2018-03-27T02:32:47.107Z,1006.9
2018-03-27T02:33:47.093Z,1006.92
2018-03-27T02:34:47.072Z,1006.95
2018-03-27T02:35:47.048Z,1006.93
2018-03-27T02:36:47.031Z,1006.91
2018-03-27T02:37:47.011Z,1006.87
2018-03-27T02:38:47.022Z,1006.91
2018-03-27T02:39:47.014Z,1006.88
2018-03-27T02:40:46.956Z,1006.89
2018-03-27T02:41:46.929Z,1006.89
2018-03-27T02:42:46.925Z,1006.89
2018-03-27T02:43:46.896Z,1006.84
2018-03-27T02:44:46.873Z,1006.86
2018-03-27T02:45:46.864Z,1006.86
2018-03-27T02:46:46.837Z,1006.84
2018-03-27T02:47:46.814Z,1006.84
2018-03-27T02:48:46.791Z,1006.85
2018-03-27T02:49:46.774Z,1006.83
2018-03-27T02:50:46.756Z,1006.83
2018-03-27T02:51:46.732Z,1006.83
2018-03-27T02:52:46.712Z,1006.8
2018-03-27T02:53:46.698Z,1006.8
2018-03-27T02:54:46.674Z,1006.77
2018-03-27T02:55:46.660Z,1006.75
2018-03-27T02:56:46.710Z,1006.77
2018-03-27T02:57:46.616Z,1006.8
2018-03-27T02:58:46.595Z,1006.73
2018-03-27T02:59:46.641Z,1006.8
2018-03-27T03:00:46.553Z,1006.75
2018-03-27T03:01:46.536Z,1006.72
2018-03-27T03:02:46.515Z,1006.73
2018-03-27T03:03:46.537Z,1006.69
2018-03-27T03:04:46.473Z,1006.74
2018-03-27T03:05:46.453Z,1006.77
2018-03-27T03:06:46.435Z,1006.79
2018-03-27T03:07:46.413Z,1006.78
2018-03-27T03:08:46.393Z,1006.75
2018-03-27T03:09:46.374Z,1006.73
2018-03-27T03:10:46.353Z,1006.74
2018-03-27T03:11:46.331Z,1006.74
2018-03-27T03:12:46.312Z,1006.69
2018-03-27T03:13:46.293Z,1006.72
2018-03-27T03:14:46.300Z,1006.73
2018-03-27T03:15:46.249Z,1006.73
2018-03-27T03:16:46.229Z,1006.73
2018-03-27T03:17:46.208Z,1006.69
2018-03-27T03:18:46.195Z,1006.72
2018-03-27T03:19:46.172Z,1006.7
2018-03-27T03:20:46.148Z,1006.7
2018-03-27T03:21:46.126Z,1006.71
2018-03-27T03:22:46.107Z,1006.7
2018-03-27T03:23:46.085Z,1006.71
2018-03-27T03:24:46.104Z,1006.7
2018-03-27T03:25:46.042Z,1006.69
2018-03-27T03:26:46.026Z,1006.71
2018-03-27T03:27:46.002Z,1006.73
2018-03-27T03:28:45.984Z,1006.74
2018-03-27T03:29:45.962Z,1006.72
2018-03-27T03:30:45.973Z,1006.74
2018-03-27T03:31:45.921Z,1006.75
2018-03-27T03:32:45.898Z,1006.71
2018-03-27T03:33:45.879Z,1006.73
2018-03-27T03:34:45.867Z,1006.69
2018-03-27T03:35:45.838Z,1006.73
2018-03-27T03:36:45.816Z,1006.72
2018-03-27T03:37:45.798Z,1006.7
2018-03-27T03:38:45.773Z,1006.7
2018-03-27T03:39:45.751Z,1006.69
2018-03-27T03:40:45.731Z,1006.7
2018-03-27T03:41:45.710Z,1006.72
2018-03-27T03:42:45.689Z,1006.67
2018-03-27T03:43:45.669Z,1006.7
2018-03-27T03:44:45.649Z,1006.7
2018-03-27T03:45:45.637Z,1006.72
2018-03-27T03:46:45.607Z,1006.7
2018-03-27T03:47:45.590Z,1006.7
2018-03-27T03:48:45.563Z,1006.74
2018-03-27T03:49:45.558Z,1006.72
2018-03-27T03:50:45.521Z,1006.71
2018-03-27T03:51:45.505Z,1006.72
2018-03-27T03:52:45.503Z,1006.69
2018-03-27T03:53:45.465Z,1006.72
2018-03-27T03:54:45.442Z,1006.7
2018-03-27T03:55:45.417Z,1006.68
2018-03-27T03:56:45.397Z,1006.72
2018-03-27T03:57:45.378Z,1006.71
2018-03-27T03:58:45.352Z,1006.7
2018-03-27T03:59:45.336Z,1006.66
2018-03-27T04:00:45.314Z,1006.7
2018-03-27T04:01:45.291Z,1006.65
2018-03-27T04:02:45.473Z,1006.66
2018-03-27T04:03:45.248Z,1006.65
2018-03-27T04:04:45.228Z,1006.64
2018-03-27T04:05:45.205Z,1006.65
2018-03-27T04:06:45.185Z,1006.6
2018-03-27T04:07:45.164Z,1006.63
2018-03-27T04:08:45.142Z,1006.63
2018-03-27T04:09:45.122Z,1006.61
2018-03-27T04:10:45.100Z,1006.63
2018-03-27T04:11:45.080Z,1006.63
2018-03-27T04:12:45.057Z,1006.61
2018-03-27T04:13:45.043Z,1006.65
2018-03-27T04:14:45.016Z,1006.62
2018-03-27T04:15:44.993Z,1006.66
2018-03-27T04:16:44.973Z,1006.68
2018-03-27T04:17:44.952Z,1006.65
2018-03-27T04:18:44.930Z,1006.66
2018-03-27T04:19:44.931Z,1006.66
2018-03-27T04:20:44.957Z,1006.67
2018-03-27T04:21:44.867Z,1006.71
2018-03-27T04:22:44.847Z,1006.65
2018-03-27T04:23:44.823Z,1006.65
2018-03-27T04:24:44.802Z,1006.65
2018-03-27T04:25:44.785Z,1006.6
2018-03-27T04:26:44.759Z,1006.61
2018-03-27T04:27:44.737Z,1006.59
2018-03-27T04:28:44.742Z,1006.58
2018-03-27T04:29:44.698Z,1006.54
2018-03-27T04:30:44.677Z,1006.58
2018-03-27T04:31:44.653Z,1006.58
2018-03-27T04:32:44.635Z,1006.57
2018-03-27T04:33:44.681Z,1006.51
2018-03-27T04:34:44.587Z,1006.55
2018-03-27T04:35:44.621Z,1006.54
2018-03-27T04:36:44.545Z,1006.54
2018-03-27T04:37:44.563Z,1006.53
2018-03-27T04:38:44.502Z,1006.55
2018-03-27T04:39:44.493Z,1006.54
2018-03-27T04:40:44.509Z,1006.5
2018-03-27T04:41:44.440Z,1006.51
2018-03-27T04:42:44.419Z,1006.44
2018-03-27T04:43:44.397Z,1006.48
2018-03-27T04:44:44.377Z,1006.49
2018-03-27T04:45:44.353Z,1006.47
2018-03-27T04:46:44.332Z,1006.45
2018-03-27T04:47:44.311Z,1006.46
2018-03-27T04:48:44.289Z,1006.44
2018-03-27T04:49:44.267Z,1006.44
2018-03-27T04:50:44.246Z,1006.47
2018-03-27T04:51:44.267Z,1006.47
2018-03-27T04:52:44.276Z,1006.48
2018-03-27T04:53:44.221Z,1006.52
2018-03-27T04:54:44.159Z,1006.52
2018-03-27T04:55:44.137Z,1006.49
2018-03-27T04:56:44.147Z,1006.49
2018-03-27T04:57:44.093Z,1006.48
2018-03-27T04:58:44.072Z,1006.52
2018-03-27T04:59:44.050Z,1006.49
2018-03-27T05:00:44.029Z,1006.53
2018-03-27T05:01:44.005Z,1006.54
2018-03-27T05:02:43.984Z,1006.53
2018-03-27T05:03:43.963Z,1006.51
2018-03-27T05:04:43.941Z,1006.5
2018-03-27T05:05:43.919Z,1006.48
2018-03-27T05:06:43.901Z,1006.52
2018-03-27T05:07:43.876Z,1006.58
2018-03-27T05:08:43.858Z,1006.52
2018-03-27T05:09:43.832Z,1006.52
2018-03-27T05:10:43.812Z,1006.48
2018-03-27T05:11:43.795Z,1006.46
2018-03-27T05:12:43.767Z,1006.44
2018-03-27T05:13:43.745Z,1006.46
2018-03-27T05:14:43.723Z,1006.43
2018-03-27T05:15:43.702Z,1006.38
2018-03-27T05:16:43.682Z,1006.41
2018-03-27T05:17:43.669Z,1006.42
2018-03-27T05:18:43.639Z,1006.42
2018-03-27T05:19:43.615Z,1006.43
2018-03-27T05:20:43.593Z,1006.44
2018-03-27T05:21:43.576Z,1006.42
2018-03-27T05:22:43.548Z,1006.41
2018-03-27T05:23:43.528Z,1006.42
2018-03-27T05:24:43.510Z,1006.43
2018-03-27T05:25:43.482Z,1006.38
2018-03-27T05:26:43.460Z,1006.36
2018-03-27T05:27:43.443Z,1006.4
2018-03-27T05:28:43.426Z,1006.39
2018-03-27T05:29:43.395Z,1006.33
2018-03-27T05:30:43.375Z,1006.39
2018-03-27T05:31:43.356Z,1006.45
2018-03-27T05:32:43.333Z,1006.42
2018-03-27T05:33:43.334Z,1006.4
2018-03-27T05:34:43.287Z,1006.43
2018-03-27T05:35:43.264Z,1006.42
2018-03-27T05:36:43.244Z,1006.43
2018-03-27T05:37:43.222Z,1006.36
2018-03-27T05:38:43.222Z,1006.39
2018-03-27T05:39:43.179Z,1006.4
2018-03-27T05:40:43.164Z,1006.44
2018-03-27T05:41:43.135Z,1006.46
2018-03-27T05:42:43.113Z,1006.47
2018-03-27T05:43:43.090Z,1006.44
2018-03-27T05:44:43.068Z,1006.45
2018-03-27T05:45:43.048Z,1006.47
2018-03-27T05:46:43.100Z,1006.48
2018-03-27T05:47:43.005Z,1006.46
2018-03-27T05:48:42.982Z,1006.42
2018-03-27T05:49:42.959Z,1006.41
2018-03-27T05:50:42.940Z,1006.38
2018-03-27T05:51:42.923Z,1006.45
2018-03-27T05:52:42.898Z,1006.43
2018-03-27T05:53:42.874Z,1006.38
2018-03-27T05:54:42.852Z,1006.38
2018-03-27T05:55:42.848Z,1006.35
2018-03-27T05:56:42.811Z,1006.3
2018-03-27T05:57:42.789Z,1006.33
2018-03-27T05:58:42.775Z,1006.29
2018-03-27T05:59:42.746Z,1006.3
2018-03-27T06:00:42.724Z,1006.3
2018-03-27T06:01:42.703Z,1006.33
2018-03-27T06:02:42.680Z,1006.28
2018-03-27T06:03:42.659Z,1006.28
2018-03-27T06:04:42.637Z,1006.31
2018-03-27T06:05:42.616Z,1006.29
2018-03-27T06:06:42.594Z,1006.32
2018-03-27T06:07:42.574Z,1006.33
2018-03-27T06:08:42.554Z,1006.31
2018-03-27T06:09:42.529Z,1006.32
2018-03-27T06:10:42.510Z,1006.31
2018-03-27T06:11:42.488Z,1006.35
2018-03-27T06:12:42.468Z,1006.34
2018-03-27T06:13:42.450Z,1006.32
2018-03-27T06:14:42.424Z,1006.34
2018-03-27T06:15:42.405Z,1006.36
2018-03-27T06:16:42.381Z,1006.38
2018-03-27T06:17:42.360Z,1006.37
2018-03-27T06:18:42.362Z,1006.36
2018-03-27T06:19:42.317Z,1006.34
2018-03-27T06:20:42.297Z,1006.38
2018-03-27T06:21:42.275Z,1006.35
2018-03-27T06:22:42.260Z,1006.35
2018-03-27T06:23:42.233Z,1006.31
2018-03-27T06:24:42.212Z,1006.33
2018-03-27T06:25:42.194Z,1006.37
2018-03-27T06:26:42.174Z,1006.38
2018-03-27T06:27:42.200Z,1006.37
2018-03-27T06:28:42.129Z,1006.37
2018-03-27T06:29:42.128Z,1006.42
2018-03-27T06:30:42.089Z,1006.42
2018-03-27T06:31:42.067Z,1006.39
2018-03-27T06:32:42.047Z,1006.43
2018-03-27T06:33:42.026Z,1006.39
2018-03-27T06:34:42.009Z,1006.41
2018-03-27T06:35:41.985Z,1006.37
2018-03-27T06:36:41.970Z,1006.36
2018-03-27T06:37:41.947Z,1006.38
2018-03-27T06:38:41.928Z,1006.36
2018-03-27T06:39:41.904Z,1006.38
2018-03-27T06:40:41.885Z,1006.33
2018-03-27T06:41:41.865Z,1006.32
2018-03-27T06:42:41.846Z,1006.31
2018-03-27T06:43:41.832Z,1006.28
2018-03-27T06:44:41.804Z,1006.34
2018-03-27T06:45:41.785Z,1006.32
2018-03-27T06:46:41.777Z,1006.35
2018-03-27T06:47:41.759Z,1006.36
2018-03-27T06:48:41.727Z,1006.32
2018-03-27T06:49:41.707Z,1006.33
2018-03-27T06:50:41.684Z,1006.32
2018-03-27T06:51:41.673Z,1006.32
2018-03-27T06:52:41.647Z,1006.27
2018-03-27T06:53:41.659Z,1006.31
2018-03-27T06:54:41.605Z,1006.27
2018-03-27T06:55:41.588Z,1006.26
2018-03-27T06:56:41.568Z,1006.27
2018-03-27T06:57:41.551Z,1006.23
2018-03-27T06:58:41.530Z,1006.25
2018-03-27T06:59:41.508Z,1006.24
2018-03-27T07:00:41.489Z,1006.28
2018-03-27T07:01:41.485Z,1006.25
2018-03-27T07:02:41.453Z,1006.28
2018-03-27T07:03:41.434Z,1006.32
2018-03-27T07:04:41.427Z,1006.26
2018-03-27T07:05:41.481Z,1006.28
2018-03-27T07:06:41.378Z,1006.25
2018-03-27T07:07:41.380Z,1006.27
2018-03-27T07:08:41.335Z,1006.26
2018-03-27T07:09:41.355Z,1006.19
2018-03-27T07:10:41.307Z,1006.26
2018-03-27T07:11:41.299Z,1006.23
2018-03-27T07:12:41.286Z,1006.24
2018-03-27T07:13:41.277Z,1006.22
2018-03-27T07:14:41.221Z,1006.24
2018-03-27T07:15:41.200Z,1006.17
2018-03-27T07:16:41.199Z,1006.18
2018-03-27T07:17:41.164Z,1006.18
2018-03-27T07:18:41.174Z,1006.17
2018-03-27T07:19:41.125Z,1006.16
2018-03-27T07:20:41.144Z,1006.14
2018-03-27T07:21:41.087Z,1006.11
2018-03-27T07:22:41.068Z,1006.12
2018-03-27T07:23:41.050Z,1006.09
2018-03-27T07:24:41.032Z,1006.11
2018-03-27T07:25:41.011Z,1006.11
2018-03-27T07:26:41.044Z,1006.09
2018-03-27T07:27:40.974Z,1006.07
2018-03-27T07:28:40.958Z,1006.05
2018-03-27T07:29:40.940Z,1006.05
2018-03-27T07:30:40.926Z,1006.04
2018-03-27T07:31:40.903Z,1006.07
2018-03-27T07:32:40.880Z,1006.04
2018-03-27T07:33:40.862Z,1006.07
2018-03-27T07:34:40.845Z,1006.03
2018-03-27T07:35:40.827Z,1005.99
2018-03-27T07:36:40.806Z,1006
2018-03-27T07:37:40.792Z,1005.94
2018-03-27T07:38:40.774Z,1005.94
2018-03-27T07:39:40.749Z,1005.98
2018-03-27T07:40:40.732Z,1005.94
2018-03-27T07:41:40.720Z,1005.95
2018-03-27T07:42:40.695Z,1005.94
2018-03-27T07:43:40.678Z,1005.92
2018-03-27T07:44:40.660Z,1005.91
2018-03-27T07:45:40.644Z,1005.95
2018-03-27T07:46:40.627Z,1005.94
2018-03-27T07:47:40.604Z,1005.91
2018-03-27T07:48:40.585Z,1005.91
2018-03-27T07:49:40.567Z,1005.93
2018-03-27T07:50:40.549Z,1005.91
2018-03-27T07:51:40.531Z,1005.89
2018-03-27T07:52:40.513Z,1005.91
2018-03-27T07:53:40.495Z,1005.9
2018-03-27T07:54:40.478Z,1005.89
2018-03-27T07:55:40.461Z,1005.89
2018-03-27T07:56:40.442Z,1005.9
2018-03-27T07:57:40.429Z,1005.86
2018-03-27T07:58:40.405Z,1005.86
2018-03-27T07:59:40.387Z,1005.86
2018-03-27T08:00:40.371Z,1005.86
2018-03-27T08:01:40.361Z,1005.83
2018-03-27T08:02:40.333Z,1005.8
2018-03-27T08:03:40.317Z,1005.81
2018-03-27T08:04:40.297Z,1005.79
2018-03-27T08:05:40.280Z,1005.79
2018-03-27T08:06:40.261Z,1005.73
2018-03-27T08:07:40.244Z,1005.78
2018-03-27T08:08:40.232Z,1005.74
2018-03-27T08:09:40.213Z,1005.69
2018-03-27T08:10:40.192Z,1005.68
2018-03-27T08:11:40.175Z,1005.66
2018-03-27T08:12:40.157Z,1005.66
2018-03-27T08:13:40.138Z,1005.68
2018-03-27T08:14:40.121Z,1005.64
2018-03-27T08:15:40.104Z,1005.64
2018-03-27T08:16:40.169Z,1005.63
2018-03-27T08:17:40.073Z,1005.64
2018-03-27T08:18:40.053Z,1005.58
2018-03-27T08:19:40.036Z,1005.6
2018-03-27T08:20:40.017Z,1005.58
2018-03-27T08:21:40.000Z,1005.57
2018-03-27T08:22:40.002Z,1005.55
2018-03-27T08:23:39.967Z,1005.58
2018-03-27T08:24:39.954Z,1005.54
2018-03-27T08:25:39.933Z,1005.5
2018-03-27T08:26:39.915Z,1005.5
2018-03-27T08:27:39.899Z,1005.44
2018-03-27T08:28:39.881Z,1005.43
2018-03-27T08:29:39.946Z,1005.43
2018-03-27T08:30:39.957Z,1005.39
2018-03-27T08:31:39.831Z,1005.46
2018-03-27T08:32:39.813Z,1005.42
2018-03-27T08:33:39.796Z,1005.43
2018-03-27T08:34:39.781Z,1005.44
2018-03-27T08:35:39.824Z,1005.39
2018-03-27T08:36:39.748Z,1005.4
2018-03-27T08:37:39.735Z,1005.4
2018-03-27T08:38:39.715Z,1005.41
2018-03-27T08:39:39.711Z,1005.41
2018-03-27T08:40:39.685Z,1005.37
2018-03-27T08:41:39.713Z,1005.42
2018-03-27T08:42:39.698Z,1005.38
2018-03-27T08:43:39.637Z,1005.37
2018-03-27T08:44:39.617Z,1005.39
2018-03-27T08:45:39.602Z,1005.3
2018-03-27T08:46:39.649Z,1005.35
2018-03-27T08:47:39.568Z,1005.29
2018-03-27T08:48:39.583Z,1005.29
2018-03-27T08:49:39.537Z,1005.28
2018-03-27T08:50:39.522Z,1005.23
2018-03-27T08:51:39.508Z,1005.26
2018-03-27T08:52:39.492Z,1005.24
2018-03-27T08:53:39.476Z,1005.25
2018-03-27T08:54:39.461Z,1005.25
2018-03-27T08:55:39.446Z,1005.26
2018-03-27T08:56:39.437Z,1005.28
2018-03-27T08:57:39.418Z,1005.24
2018-03-27T08:58:39.400Z,1005.33
2018-03-27T08:59:39.387Z,1005.25
2018-03-27T09:00:39.393Z,1005.37
2018-03-27T09:01:39.357Z,1005.32
2018-03-27T09:02:39.344Z,1005.21
2018-03-27T09:03:39.346Z,1005.2
2018-03-27T09:04:39.321Z,1005.17
2018-03-27T09:05:39.301Z,1005.16
2018-03-27T09:06:39.289Z,1005.19
2018-03-27T09:07:39.276Z,1005.25
2018-03-27T09:08:39.262Z,1005.31
2018-03-27T09:09:39.250Z,1005.34
2018-03-27T09:10:39.237Z,1005.25
2018-03-27T09:11:39.229Z,1005.24
2018-03-27T09:12:39.212Z,1005.17
2018-03-27T09:13:39.201Z,1005.16
2018-03-27T09:14:39.193Z,1005.22
2018-03-27T09:15:39.181Z,1005.21
2018-03-27T09:16:39.163Z,1005.19
2018-03-27T09:17:39.152Z,1005.18
2018-03-27T09:18:39.141Z,1005.22
2018-03-27T09:19:39.129Z,1005.19
2018-03-27T09:20:39.121Z,1005.17
2018-03-27T09:21:39.108Z,1005.13
2018-03-27T09:22:39.099Z,1005.14
2018-03-27T09:23:39.086Z,1005.04
2018-03-27T09:24:39.082Z,1005.02
2018-03-27T09:25:39.073Z,1005.01
2018-03-27T09:26:39.056Z,1005.11
2018-03-27T09:27:39.047Z,1005.13
2018-03-27T09:28:39.066Z,1005.05
2018-03-27T09:29:39.026Z,1005.04
2018-03-27T09:30:39.017Z,1004.99
2018-03-27T09:31:39.010Z,1004.94
2018-03-27T09:32:39.001Z,1004.98
2018-03-27T09:33:38.994Z,1004.96
2018-03-27T09:34:38.979Z,1004.94
2018-03-27T09:35:38.970Z,1004.92
2018-03-27T09:36:38.961Z,1004.89
2018-03-27T09:37:38.952Z,1004.89
2018-03-27T09:38:38.940Z,1004.91
2018-03-27T09:39:38.931Z,1004.92
2018-03-27T09:40:38.932Z,1004.85
2018-03-27T09:41:38.916Z,1004.88
2018-03-27T09:42:38.904Z,1004.85
2018-03-27T09:43:38.895Z,1004.83
2018-03-27T09:44:38.888Z,1004.8
2018-03-27T09:45:38.876Z,1004.75
2018-03-27T09:46:38.873Z,1004.84
2018-03-27T09:47:38.863Z,1004.82
2018-03-27T09:48:38.853Z,1004.79
2018-03-27T09:49:38.839Z,1004.77
2018-03-27T09:50:38.832Z,1004.69
2018-03-27T09:51:38.824Z,1004.71
2018-03-27T09:52:38.810Z,1004.78
2018-03-27T09:53:38.801Z,1004.75
2018-03-27T09:54:38.789Z,1004.71
2018-03-27T09:55:38.780Z,1004.71
2018-03-27T09:56:38.769Z,1004.74
2018-03-27T09:57:38.763Z,1004.75
2018-03-27T09:58:38.752Z,1004.68
2018-03-27T09:59:38.746Z,1004.7
2018-03-27T10:00:38.735Z,1004.68
2018-03-27T10:01:38.724Z,1004.67
2018-03-27T10:02:38.715Z,1004.64
2018-03-27T10:03:38.906Z,1004.66
2018-03-27T10:04:38.694Z,1004.63
2018-03-27T10:05:38.692Z,1004.67
2018-03-27T10:06:38.677Z,1004.63
2018-03-27T10:07:38.668Z,1004.65
2018-03-27T10:08:38.661Z,1004.64
2018-03-27T10:09:38.651Z,1004.63
2018-03-27T10:10:38.638Z,1004.63
2018-03-27T10:11:38.629Z,1004.59
2018-03-27T10:12:38.623Z,1004.57
2018-03-27T10:13:38.613Z,1004.58
2018-03-27T10:14:38.603Z,1004.55
2018-03-27T10:15:38.597Z,1004.57
2018-03-27T10:16:38.595Z,1004.55
2018-03-27T10:17:38.581Z,1004.58
2018-03-27T10:18:38.571Z,1004.53
2018-03-27T10:19:38.563Z,1004.55
2018-03-27T10:20:38.557Z,1004.59
2018-03-27T10:21:38.544Z,1004.51
2018-03-27T10:22:38.535Z,1004.47
2018-03-27T10:23:38.539Z,1004.45
2018-03-27T10:24:38.536Z,1004.49
2018-03-27T10:25:38.520Z,1004.51
2018-03-27T10:26:38.512Z,1004.53
2018-03-27T10:27:38.500Z,1004.5
2018-03-27T10:28:38.492Z,1004.44
2018-03-27T10:29:38.486Z,1004.47
2018-03-27T10:30:38.481Z,1004.44
2018-03-27T10:31:38.474Z,1004.4
2018-03-27T10:32:38.466Z,1004.41
2018-03-27T10:33:38.462Z,1004.32
2018-03-27T10:34:38.449Z,1004.33
2018-03-27T10:35:38.442Z,1004.33
2018-03-27T10:36:38.439Z,1004.32
2018-03-27T10:37:38.428Z,1004.24
2018-03-27T10:38:38.440Z,1004.24
2018-03-27T10:39:38.415Z,1004.3
2018-03-27T10:40:38.409Z,1004.21
2018-03-27T10:41:38.399Z,1004.17
2018-03-27T10:42:38.394Z,1004.16
2018-03-27T10:43:38.390Z,1004.16
2018-03-27T10:44:38.380Z,1004.13
2018-03-27T10:45:38.372Z,1004.07
2018-03-27T10:46:38.363Z,1004.05
2018-03-27T10:47:38.357Z,1004
2018-03-27T10:48:38.351Z,1004
2018-03-27T10:49:38.345Z,1003.99
2018-03-27T10:50:38.340Z,1003.95
2018-03-27T10:51:38.334Z,1003.98
2018-03-27T10:52:38.324Z,1003.97
2018-03-27T10:53:38.318Z,1003.98
2018-03-27T10:54:38.310Z,1003.97
2018-03-27T10:55:38.322Z,1003.97
2018-03-27T10:56:38.297Z,1004.01
2018-03-27T10:57:38.293Z,1003.86
2018-03-27T10:58:38.286Z,1003.8
2018-03-27T10:59:38.279Z,1003.83
2018-03-27T11:00:38.273Z,1003.83
2018-03-27T11:01:38.269Z,1003.68
2018-03-27T11:02:38.272Z,1003.74
2018-03-27T11:03:38.262Z,1003.85
2018-03-27T11:04:38.264Z,1003.81
2018-03-27T11:05:38.253Z,1003.8
2018-03-27T11:06:38.245Z,1003.77
2018-03-27T11:07:38.242Z,1003.64
2018-03-27T11:08:38.236Z,1003.82
2018-03-27T11:09:38.229Z,1003.75
2018-03-27T11:10:38.224Z,1003.76
2018-03-27T11:11:38.217Z,1003.8
2018-03-27T11:12:38.213Z,1003.76
2018-03-27T11:13:38.206Z,1003.84
2018-03-27T11:14:38.201Z,1003.81
2018-03-27T11:15:38.194Z,1003.8
2018-03-27T11:16:38.189Z,1003.73
2018-03-27T11:17:38.181Z,1003.73
2018-03-27T11:18:38.176Z,1003.69
2018-03-27T11:19:38.218Z,1003.72
2018-03-27T11:20:38.161Z,1003.68
2018-03-27T11:21:38.154Z,1003.66
2018-03-27T11:22:38.154Z,1003.65
2018-03-27T11:23:38.139Z,1003.65
2018-03-27T11:24:38.135Z,1003.65
2018-03-27T11:25:38.130Z,1003.64
2018-03-27T11:26:38.119Z,1003.6
2018-03-27T11:27:38.116Z,1003.62
2018-03-27T11:28:38.104Z,1003.55
2018-03-27T11:29:38.097Z,1003.45
2018-03-27T11:30:38.092Z,1003.44
2018-03-27T11:31:38.082Z,1003.43
2018-03-27T11:32:38.080Z,1003.4
2018-03-27T11:33:38.070Z,1003.44
2018-03-27T11:34:38.061Z,1003.33
2018-03-27T11:35:38.054Z,1003.41
2018-03-27T11:36:38.049Z,1003.41
2018-03-27T11:37:38.043Z,1003.36
2018-03-27T11:38:38.032Z,1003.38
2018-03-27T11:39:38.035Z,1003.29
2018-03-27T11:40:38.025Z,1003.26
2018-03-27T11:41:38.021Z,1003.24
2018-03-27T11:42:38.011Z,1003.18
2018-03-27T11:43:38.008Z,1003.2
2018-03-27T11:44:37.996Z,1003.22
2018-03-27T11:45:37.987Z,1003.19
2018-03-27T11:46:37.982Z,1003.11
2018-03-27T11:47:37.979Z,1003.07
2018-03-27T11:48:37.971Z,1003.04
2018-03-27T11:49:37.962Z,1003.01
2018-03-27T11:50:37.957Z,1003.05
2018-03-27T11:51:37.953Z,1003.02
2018-03-27T11:52:37.948Z,1002.99
2018-03-27T11:53:37.942Z,1002.99
2018-03-27T11:54:37.988Z,1002.93
2018-03-27T11:55:37.932Z,1002.89
2018-03-27T11:56:37.919Z,1002.83
2018-03-27T11:57:37.916Z,1002.83
2018-03-27T11:58:37.911Z,1002.84
2018-03-27T11:59:38.065Z,1002.86
2018-03-27T12:00:37.903Z,1002.83
2018-03-27T12:01:37.932Z,1002.84
2018-03-27T12:02:37.900Z,1002.87
2018-03-27T12:03:38.149Z,1002.85
2018-03-27T12:04:37.877Z,1002.84
2018-03-27T12:05:37.927Z,1002.75
2018-03-27T12:06:37.863Z,1002.72
2018-03-27T12:07:37.856Z,1002.69
2018-03-27T12:08:37.852Z,1002.63